Time;durP1;ratioP1;P1;durP2;ratioP2;P2;SDS_P1;SDS_P2;PMS_P1;PMS_P2;Temp;Humidity;BMP_temperature;BMP_pressure;BME280_temperature;BME280_humidity;BME280_pressure;Samples;Min_cycle;Max_cycle;Signal;HPM_P1;HPM_P2
2023/07/08 00:04:34;;;;;;;;;;;;;;;22.88;36.50;95889.47;10382405;28;2012;-69
2023/07/08 00:09:35;;;;;;;;;;;;;;;22.86;36.19;95904.03;10398592;28;1890;-70
2023/07/08 00:14:35;;;;;;;;;;;;;;;22.85;36.59;95905.13;10403342;28;1905;-69
2023/07/08 00:19:35;;;;;;;;;;;;;;;22.83;36.41;95896.69;10398952;28;1901;-69
2023/07/08 00:24:36;;;;;;;;;;;;;;;22.81;36.76;95883.00;10398974;28;2584;-69
2023/07/08 00:29:36;;;;;;;;;;;;;;;22.78;36.69;95883.53;10393085;28;2293;-69
2023/07/08 00:34:36;;;;;;;;;;;;;;;22.77;36.82;95893.34;10400034;28;1882;-69
2023/07/08 00:39:36;;;;;;;;;;;;;;;22.75;36.92;95882.25;10379726;28;1936;-70
2023/07/08 00:44:37;;;;;;;;;;;;;;;22.75;37.04;95884.13;10396544;28;4518;-69
2023/07/08 00:49:39;;;;;;;;;;;;;;;22.73;37.15;95887.03;10372585;28;2168;-69
2023/07/08 00:54:39;;;;;;;;;;;;;;;22.70;37.23;95894.75;10384275;28;2000;-70
2023/07/08 00:59:42;;;;;;;;;;;;;;;22.70;37.35;95881.53;10398468;28;2021;-69
2023/07/08 01:04:42;;;;;;;;;;;;;;;22.67;37.35;95890.03;10402607;28;2246;-69
2023/07/08 01:09:43;;;;;;;;;;;;;;;22.65;37.57;95882.38;10402520;28;2048;-69
2023/07/08 01:14:43;;;;;;;;;;;;;;;22.63;37.18;95882.66;10402035;28;2194;-68
2023/07/08 01:19:44;;;;;;;;;;;;;;;22.60;37.71;95880.59;10385945;28;2458;-69
2023/07/08 01:24:44;;;;;;;;;;;;;;;22.56;37.64;95889.34;10406014;28;2104;-69
2023/07/08 01:29:44;;;;;;;;;;;;;;;22.50;37.40;95888.59;10405761;28;2095;-69
2023/07/08 01:34:59;;;;;;;;;;;;;;;22.47;37.62;95893.66;10412472;28;2080;-68
2023/07/08 01:40:15;;;;;;;;;;;;;;;22.43;37.77;95895.28;10402118;28;4491;-68
2023/07/08 01:45:16;;;;;;;;;;;;;;;22.43;37.72;95890.81;10400900;28;2210;-67
2023/07/08 01:50:16;;;;;;;;;;;;;;;22.43;37.70;95890.00;10402634;28;2100;-69
2023/07/08 01:55:20;;;;;;;;;;;;;;;22.46;37.59;95877.03;10403889;28;2273;-68
2023/07/08 02:00:20;;;;;;;;;;;;;;;22.45;37.57;95879.94;10384088;28;1987;-68
2023/07/08 02:05:20;;;;;;;;;;;;;;;22.43;37.67;95885.53;10400805;28;1943;-68
2023/07/08 02:10:21;;;;;;;;;;;;;;;22.43;38.06;95882.09;10384170;28;2085;-67
2023/07/08 02:15:21;;;;;;;;;;;;;;;22.42;38.08;95883.94;10399494;28;2259;-68
2023/07/08 02:20:21;;;;;;;;;;;;;;;22.41;38.30;95879.75;10400032;28;2297;-69
2023/07/08 02:25:22;;;;;;;;;;;;;;;22.41;38.48;95871.03;10383097;28;2094;-68
2023/07/08 02:30:25;;;;;;;;;;;;;;;22.40;38.55;95874.75;10402678;28;2189;-69
2023/07/08 02:35:29;;;;;;;;;;;;;;;22.39;38.55;95873.16;10397263;28;2027;-69
2023/07/08 02:40:29;;;;;;;;;;;;;;;22.34;38.47;95858.16;10384958;28;4293;-69
2023/07/08 02:45:29;;;;;;;;;;;;;;;22.33;38.31;95861.88;10404607;28;2308;-68
2023/07/08 02:50:30;;;;;;;;;;;;;;;22.31;38.74;95866.66;10399573;28;2340;-68
2023/07/08 02:55:30;;;;;;;;;;;;;;;22.27;38.68;95867.50;10401026;28;2126;-69
2023/07/08 03:00:31;;;;;;;;;;;;;;;22.24;38.83;95878.59;10381508;28;1963;-69
2023/07/08 03:05:31;;;;;;;;;;;;;;;22.22;38.66;95878.09;10395511;28;1992;-68
2023/07/08 03:10:32;;;;;;;;;;;;;;;22.20;38.79;95872.31;10384091;28;2473;-70
2023/07/08 03:15:32;;;;;;;;;;;;;;;22.16;38.70;95876.56;10395914;28;1963;-69
2023/07/08 03:20:33;;;;;;;;;;;;;;;22.14;38.70;95868.94;10395596;28;2222;-69
2023/07/08 03:25:35;;;;;;;;;;;;;;;22.13;38.94;95879.78;10397502;28;2103;-69
2023/07/08 03:30:35;;;;;;;;;;;;;;;22.10;38.77;95873.22;10401432;28;2001;-69
2023/07/08 03:35:35;;;;;;;;;;;;;;;22.10;38.86;95861.84;10398462;28;2071;-72
2023/07/08 03:40:36;;;;;;;;;;;;;;;22.06;38.87;95856.34;10394738;28;4478;-70
2023/07/08 03:45:36;;;;;;;;;;;;;;;22.03;39.24;95856.13;10395781;28;1992;-70
2023/07/08 03:50:36;;;;;;;;;;;;;;;21.99;39.29;95855.88;10382746;28;2129;-70
2023/07/08 03:55:36;;;;;;;;;;;;;;;21.99;39.40;95855.88;10400047;28;2193;-71
2023/07/08 04:00:37;;;;;;;;;;;;;;;21.98;39.25;95867.53;10396909;28;2268;-70
2023/07/08 04:05:37;;;;;;;;;;;;;;;21.96;39.62;95874.94;10407753;28;2002;-69
2023/07/08 04:10:37;;;;;;;;;;;;;;;21.96;39.60;95882.06;10395596;28;2395;-67
2023/07/08 04:15:37;;;;;;;;;;;;;;;21.95;39.55;95880.50;10380774;28;1986;-68
2023/07/08 04:20:38;;;;;;;;;;;;;;;21.93;39.58;95878.13;10379491;28;1972;-68
2023/07/08 04:25:38;;;;;;;;;;;;;;;21.90;39.83;95876.06;10397941;28;2028;-68
2023/07/08 04:30:41;;;;;;;;;;;;;;;21.92;39.78;95873.94;10395705;28;2001;-69
2023/07/08 04:35:41;;;;;;;;;;;;;;;21.90;40.00;95877.91;10403317;28;2019;-69
2023/07/08 04:40:41;;;;;;;;;;;;;;;21.93;40.18;95883.41;10390693;28;2060;-69
2023/07/08 04:45:42;;;;;;;;;;;;;;;21.92;40.13;95891.59;10388212;28;2125;-69
2023/07/08 04:50:43;;;;;;;;;;;;;;;21.93;40.12;95907.16;10388070;28;1982;-69
2023/07/08 04:55:53;;;;;;;;;;;;;;;21.97;40.22;95917.97;10402081;28;2182;-70
2023/07/08 05:00:53;;;;;;;;;;;;;;;22.00;40.32;95931.38;10404080;28;1960;-69
2023/07/08 05:05:53;;;;;;;;;;;;;;;22.01;40.51;95938.22;10402102;28;2377;-69
2023/07/08 05:10:54;;;;;;;;;;;;;;;22.04;40.68;95931.59;10404729;28;2274;-70
2023/07/08 05:15:54;;;;;;;;;;;;;;;22.03;40.80;95941.38;10404761;28;2000;-70
2023/07/08 05:20:55;;;;;;;;;;;;;;;22.09;41.03;95950.06;10386079;28;2118;-69
2023/07/08 05:25:58;;;;;;;;;;;;;;;22.10;41.02;95951.63;10389409;28;1976;-70
2023/07/08 05:30:59;;;;;;;;;;;;;;;22.00;41.47;95944.59;10404501;28;2054;-70
2023/07/08 05:35:59;;;;;;;;;;;;;;;21.97;41.54;95952.28;10399295;28;2012;-71
2023/07/08 05:40:59;;;;;;;;;;;;;;;21.98;41.96;95944.06;10405003;28;4505;-70
2023/07/08 05:46:00;;;;;;;;;;;;;;;22.03;41.57;95935.34;10401032;28;2035;-69
2023/07/08 05:51:00;;;;;;;;;;;;;;;22.04;41.76;95921.84;10406994;28;1994;-70
2023/07/08 05:56:01;;;;;;;;;;;;;;;22.06;41.93;95919.72;10402241;28;2051;-71
2023/07/08 06:01:02;;;;;;;;;;;;;;;22.15;42.02;95918.06;10398885;28;2007;-70
2023/07/08 06:06:02;;;;;;;;;;;;;;;22.14;41.92;95921.75;10402461;28;2141;-70
2023/07/08 06:11:03;;;;;;;;;;;;;;;22.13;41.86;95933.38;10406832;28;2122;-70
2023/07/08 06:16:03;;;;;;;;;;;;;;;22.19;42.14;95932.28;10400839;28;2016;-70
2023/07/08 06:21:05;;;;;;;;;;;;;;;22.19;41.94;95932.28;10398629;28;2086;-70
2023/07/08 06:26:06;;;;;;;;;;;;;;;22.21;41.77;95929.34;10397678;28;1988;-69
2023/07/08 06:31:06;;;;;;;;;;;;;;;22.20;41.98;95922.47;10401022;28;2071;-69
2023/07/08 06:36:07;;;;;;;;;;;;;;;22.26;42.00;95908.16;10398862;28;1976;-70
2023/07/08 06:41:07;;;;;;;;;;;;;;;22.27;42.25;95936.94;10399967;28;4474;-68
2023/07/08 06:46:08;;;;;;;;;;;;;;;22.31;42.16;95937.94;10393843;28;1964;-69
2023/07/08 06:51:08;;;;;;;;;;;;;;;22.37;42.58;95931.56;10368619;28;2103;-70
2023/07/08 06:56:08;;;;;;;;;;;;;;;22.42;42.75;95936.75;10397204;28;2243;-69
2023/07/08 07:01:09;;;;;;;;;;;;;;;22.40;42.08;95938.91;10398941;28;2076;-70
2023/07/08 07:06:09;;;;;;;;;;;;;;;22.37;42.51;95941.31;10397685;28;1976;-77
2023/07/08 07:11:09;;;;;;;;;;;;;;;22.41;42.33;95939.69;10400879;28;2187;-68
2023/07/08 07:16:09;;;;;;;;;;;;;;;22.45;42.19;95938.84;10395790;28;2035;-67
2023/07/08 07:21:10;;;;;;;;;;;;;;;22.51;41.97;95948.31;10399059;28;1977;-66
2023/07/08 07:26:10;;;;;;;;;;;;;;;22.57;42.17;95946.38;10397912;28;2278;-67
2023/07/08 07:31:11;;;;;;;;;;;;;;;22.60;42.16;95946.66;10400689;28;2058;-72
2023/07/08 07:36:11;;;;;;;;;;;;;;;22.65;42.16;95948.44;10393347;28;2034;-67
2023/07/08 07:41:12;;;;;;;;;;;;;;;22.70;42.34;95952.88;10397898;28;4553;-71
2023/07/08 07:46:12;;;;;;;;;;;;;;;22.74;42.34;95961.81;10397530;28;2008;-70
2023/07/08 07:51:13;;;;;;;;;;;;;;;22.76;43.00;95972.88;10381997;28;2008;-71
2023/07/08 07:56:13;;;;;;;;;;;;;;;22.80;42.61;95993.19;10400059;28;2223;-70
2023/07/08 08:01:15;;;;;;;;;;;;;;;22.83;42.54;95989.22;10396950;28;1986;-70
2023/07/08 08:06:17;;;;;;;;;;;;;;;22.80;42.93;96009.06;10391889;28;2048;-71
2023/07/08 08:11:18;;;;;;;;;;;;;;;22.76;43.05;96009.88;10391080;28;2146;-70
2023/07/08 08:16:18;;;;;;;;;;;;;;;22.85;42.93;96008.22;10375041;28;2080;-71
2023/07/08 08:21:19;;;;;;;;;;;;;;;22.84;42.62;96019.84;10403386;28;2011;-69
2023/07/08 08:26:19;;;;;;;;;;;;;;;22.86;42.54;96038.84;10391673;28;1964;-66
2023/07/08 08:31:19;;;;;;;;;;;;;;;22.92;42.40;96040.38;10387379;28;2141;-67
2023/07/08 08:36:21;;;;;;;;;;;;;;;22.90;42.21;96037.22;10390763;28;2071;-67
2023/07/08 08:41:31;;;;;;;;;;;;;;;22.81;42.50;96034.44;10392276;28;4379;-67
2023/07/08 08:46:55;;;;;;;;;;;;;;;22.81;42.30;96038.91;10376492;28;2139;-66
2023/07/08 08:51:55;;;;;;;;;;;;;;;22.90;42.42;96029.28;10398362;28;2396;-65
2023/07/08 08:57:07;;;;;;;;;;;;;;;22.95;42.50;96031.88;10378155;28;1990;-66
2023/07/08 09:02:19;;;;;;;;;;;;;;;22.84;42.61;96030.41;10395229;28;2114;-65
2023/07/08 09:07:19;;;;;;;;;;;;;;;22.95;42.31;96032.69;10379138;28;2109;-72
2023/07/08 09:12:21;;;;;;;;;;;;;;;23.02;42.03;96033.13;10396241;28;2008;-73
2023/07/08 09:17:30;;;;;;;;;;;;;;;23.06;42.20;96043.94;10394898;28;1962;-72
2023/07/08 09:22:39;;;;;;;;;;;;;;;23.08;42.12;96047.09;10403310;28;2232;-73
2023/07/08 09:27:40;;;;;;;;;;;;;;;23.12;42.51;96048.09;10390951;28;1980;-74
2023/07/08 09:32:40;;;;;;;;;;;;;;;23.14;42.23;96048.59;10405086;28;2245;-73
2023/07/08 09:37:40;;;;;;;;;;;;;;;23.16;42.50;96047.22;10402042;28;2258;-74
2023/07/08 09:42:41;;;;;;;;;;;;;;;23.17;42.15;96046.16;10383216;28;2062;-74
2023/07/08 09:47:42;;;;;;;;;;;;;;;23.19;42.54;96040.59;10370554;28;2574;-73
2023/07/08 09:52:42;;;;;;;;;;;;;;;23.20;42.67;96040.34;10386541;28;2087;-71
2023/07/08 09:57:43;;;;;;;;;;;;;;;23.23;42.44;96034.47;10404293;28;2066;-68
2023/07/08 10:02:43;;;;;;;;;;;;;;;23.25;42.88;96042.09;10412956;28;2022;-67
2023/07/08 10:07:44;;;;;;;;;;;;;;;23.28;42.27;96046.84;10402844;28;2003;-74
2023/07/08 10:12:55;;;;;;;;;;;;;;;23.30;42.57;96047.34;10398116;28;2050;-67
2023/07/08 10:17:55;;;;;;;;;;;;;;;23.32;42.44;96058.47;10368455;28;2031;-65
2023/07/08 10:22:58;;;;;;;;;;;;;;;23.32;42.28;96048.66;10398582;28;2227;-64
2023/07/08 10:28:14;;;;;;;;;;;;;;;23.33;42.58;96062.66;10402953;28;2071;-64
2023/07/08 10:33:17;;;;;;;;;;;;;;;23.36;42.23;96064.75;10402031;28;2022;-64
2023/07/08 10:38:32;;;;;;;;;;;;;;;23.37;42.38;96063.66;10403076;28;2004;-64
2023/07/08 10:43:41;;;;;;;;;;;;;;;23.38;42.25;96054.69;10412832;28;4406;-64
2023/07/08 10:49:00;;;;;;;;;;;;;;;23.39;42.44;96049.09;10398429;28;2035;-64
2023/07/08 10:54:07;;;;;;;;;;;;;;;23.41;42.57;96054.88;10398199;28;2023;-64
2023/07/08 10:59:27;;;;;;;;;;;;;;;23.43;42.46;96057.28;10382891;28;1968;-64
2023/07/08 11:04:45;;;;;;;;;;;;;;;23.45;42.51;96047.19;10397380;28;2027;-64
2023/07/08 11:09:50;;;;;;;;;;;;;;;23.45;42.79;96033.97;10400126;28;1910;-64
2023/07/08 11:14:52;;;;;;;;;;;;;;;23.47;42.67;96039.75;10403322;28;1985;-64
2023/07/08 11:19:57;;;;;;;;;;;;;;;23.48;42.51;96046.59;10399572;28;2040;-63
2023/07/08 11:24:57;;;;;;;;;;;;;;;23.50;42.44;96043.66;10378973;28;1909;-64
2023/07/08 11:30:04;;;;;;;;;;;;;;;23.50;42.64;96033.88;10376399;28;1971;-64
2023/07/08 11:35:04;;;;;;;;;;;;;;;23.52;42.49;96028.28;10396084;28;1922;-65
2023/07/08 11:40:04;;;;;;;;;;;;;;;23.52;42.46;96034.38;10392692;28;4446;-64
2023/07/08 11:45:20;;;;;;;;;;;;;;;23.52;42.34;96021.16;10396468;28;2141;-64
2023/07/08 11:50:20;;;;;;;;;;;;;;;23.53;42.46;96014.81;10396866;28;2008;-63
2023/07/08 11:55:46;;;;;;;;;;;;;;;23.54;42.69;96013.72;10395926;28;1894;-64
2023/07/08 12:00:51;;;;;;;;;;;;;;;23.55;42.53;96012.66;10375857;28;2128;-64
2023/07/08 12:05:52;;;;;;;;;;;;;;;23.57;42.91;96012.34;10381966;28;2017;-63
2023/07/08 12:10:52;;;;;;;;;;;;;;;23.57;42.81;96013.16;10396024;28;1991;-64
2023/07/08 12:15:52;;;;;;;;;;;;;;;23.57;42.82;96013.16;10396047;28;2001;-63
2023/07/08 12:21:00;;;;;;;;;;;;;;;23.58;42.76;96001.47;10396112;28;1971;-64
2023/07/08 12:26:02;;;;;;;;;;;;;;;23.59;42.46;96000.44;10394304;28;2004;-64
2023/07/08 12:31:02;;;;;;;;;;;;;;;23.60;42.42;95995.91;10397926;28;1885;-64
2023/07/08 12:36:03;;;;;;;;;;;;;;;23.60;42.45;95996.69;10393646;28;2316;-64
2023/07/08 12:41:09;;;;;;;;;;;;;;;23.61;42.55;95986.91;10392678;28;4652;-64
2023/07/08 12:46:10;;;;;;;;;;;;;;;23.60;42.66;95986.09;10393765;28;2016;-67
2023/07/08 12:51:10;;;;;;;;;;;;;;;23.62;42.99;95989.25;10399807;28;1978;-64
2023/07/08 12:56:11;;;;;;;;;;;;;;;23.62;42.73;95986.59;10403387;28;1996;-64
2023/07/08 13:01:18;;;;;;;;;;;;;;;23.62;42.71;95986.59;10401377;28;1889;-64
2023/07/08 13:06:22;;;;;;;;;;;;;;;23.64;42.52;95996.94;10402169;28;2045;-64
2023/07/08 13:11:24;;;;;;;;;;;;;;;23.63;42.84;95984.75;10399218;28;2162;-63
2023/07/08 13:16:27;;;;;;;;;;;;;;;23.64;42.57;95996.94;10400109;28;2084;-63
2023/07/08 13:21:27;;;;;;;;;;;;;;;23.64;42.66;96002.22;10388274;28;1931;-63
2023/07/08 13:26:29;;;;;;;;;;;;;;;23.65;42.62;95999.28;10396457;28;1986;-65
2023/07/08 13:31:33;;;;;;;;;;;;;;;23.67;42.90;95997.13;10398486;28;2283;-63
2023/07/08 13:36:35;;;;;;;;;;;;;;;23.68;42.97;95996.03;10386464;28;1995;-63
2023/07/08 13:41:36;;;;;;;;;;;;;;;23.72;43.27;95991.75;10385807;28;4372;-63
2023/07/08 13:46:37;;;;;;;;;;;;;;;23.72;43.92;95986.44;10401310;28;1971;-64
2023/07/08 13:51:37;;;;;;;;;;;;;;;23.75;43.91;95979.81;10401544;28;1931;-64
2023/07/08 13:56:37;;;;;;;;;;;;;;;23.76;44.29;95984.81;10400286;28;1963;-62
2023/07/08 14:01:39;;;;;;;;;;;;;;;23.80;44.31;95979.75;10383219;28;1953;-63
2023/07/08 14:06:39;;;;;;;;;;;;;;;23.80;44.38;95979.75;10388625;28;1980;-63
2023/07/08 14:11:40;;;;;;;;;;;;;;;23.82;44.29;95975.69;10411027;28;1972;-65
2023/07/08 14:16:42;;;;;;;;;;;;;;;23.81;44.15;95974.16;10400436;28;2160;-65
2023/07/08 14:21:43;;;;;;;;;;;;;;;23.82;43.81;95978.34;10399550;28;2003;-62
2023/07/08 14:26:43;;;;;;;;;;;;;;;23.83;43.99;95971.19;10383506;28;1906;-63
2023/07/08 14:31:44;;;;;;;;;;;;;;;23.83;44.01;95969.34;10400356;28;2040;-64
2023/07/08 14:36:44;;;;;;;;;;;;;;;23.85;43.95;95972.50;10404492;28;1909;-62
2023/07/08 14:41:44;;;;;;;;;;;;;;;23.83;43.80;95965.91;10403988;28;4545;-63
2023/07/08 14:46:45;;;;;;;;;;;;;;;23.84;43.76;95968.28;10396672;28;1988;-63
2023/07/08 14:51:45;;;;;;;;;;;;;;;23.85;43.63;95969.84;10400839;28;1897;-62
2023/07/08 14:56:46;;;;;;;;;;;;;;;23.84;43.76;95973.59;10399935;28;1953;-62
2023/07/08 15:01:46;;;;;;;;;;;;;;;23.85;43.82;95983.09;10379730;28;2028;-63
2023/07/08 15:06:46;;;;;;;;;;;;;;;23.86;43.56;95983.88;10397029;28;1914;-62
2023/07/08 15:11:47;;;;;;;;;;;;;;;23.84;43.65;95970.94;10401346;28;1942;-62
2023/07/08 15:16:47;;;;;;;;;;;;;;;23.84;43.56;95976.22;10381806;28;1920;-62
2023/07/08 15:21:48;;;;;;;;;;;;;;;23.85;43.71;95966.41;10396689;28;2244;-63
2023/07/08 15:26:48;;;;;;;;;;;;;;;23.87;43.48;95966.91;10396859;28;1914;-63
2023/07/08 15:31:48;;;;;;;;;;;;;;;23.87;43.25;95958.97;10398146;28;2006;-63
2023/07/08 15:36:49;;;;;;;;;;;;;;;23.87;43.36;95965.03;10398104;28;1954;-62
2023/07/08 15:41:49;;;;;;;;;;;;;;;23.86;43.33;95963.50;10398672;28;4530;-62
2023/07/08 15:46:50;;;;;;;;;;;;;;;23.87;43.14;95970.34;10396791;28;2021;-63
2023/07/08 15:51:50;;;;;;;;;;;;;;;23.87;43.26;95957.09;10409004;28;1951;-63
2023/07/08 15:56:51;;;;;;;;;;;;;;;23.86;43.28;95963.50;10397929;28;2121;-63
2023/07/08 16:01:51;;;;;;;;;;;;;;;23.84;42.98;95960.34;10394801;28;1875;-65
2023/07/08 16:06:51;;;;;;;;;;;;;;;23.87;43.17;95964.25;10395519;28;1914;-64
2023/07/08 16:11:52;;;;;;;;;;;;;;;23.88;43.17;95971.13;10396040;28;1968;-64
2023/07/08 16:16:52;;;;;;;;;;;;;;;23.88;43.17;95974.56;10396164;28;1994;-64
2023/07/08 16:21:52;;;;;;;;;;;;;;;23.88;43.18;95971.13;10391761;28;2159;-64
2023/07/08 16:26:52;;;;;;;;;;;;;;;23.89;43.21;95973.50;10394678;28;1979;-65
2023/07/08 16:31:53;;;;;;;;;;;;;;;23.89;43.01;95964.75;10399601;28;1890;-65
2023/07/08 16:36:53;;;;;;;;;;;;;;;23.89;43.21;95959.47;10397783;28;2004;-65
2023/07/08 16:41:53;;;;;;;;;;;;;;;23.89;43.08;95962.09;10404727;28;4450;-65
2023/07/08 16:46:54;;;;;;;;;;;;;;;23.89;43.19;95956.81;10405857;28;1964;-64
2023/07/08 16:51:54;;;;;;;;;;;;;;;23.90;43.06;95955.75;10408343;28;2002;-64
2023/07/08 16:56:54;;;;;;;;;;;;;;;23.90;43.02;95953.91;10404150;28;1940;-64
2023/07/08 17:01:54;;;;;;;;;;;;;;;23.89;42.89;95957.59;10408352;28;1918;-64
2023/07/08 17:06:55;;;;;;;;;;;;;;;23.91;43.18;95960.75;10405866;28;1920;-64
2023/07/08 17:11:55;;;;;;;;;;;;;;;23.90;43.17;95956.53;10404649;28;1948;-64
2023/07/08 17:16:55;;;;;;;;;;;;;;;23.91;43.12;95955.44;10385751;28;2326;-64
2023/07/08 17:21:55;;;;;;;;;;;;;;;23.91;42.87;95936.91;10405382;28;2101;-64
2023/07/08 17:26:56;;;;;;;;;;;;;;;23.91;43.03;95947.50;10383140;28;2025;-64
2023/07/08 17:31:56;;;;;;;;;;;;;;;23.91;42.76;95944.84;10403556;28;2006;-65
2023/07/08 17:36:56;;;;;;;;;;;;;;;23.91;42.67;95955.44;10384909;28;2061;-63
2023/07/08 17:41:57;;;;;;;;;;;;;;;23.91;42.85;95942.22;10383544;28;4501;-63
2023/07/08 17:46:57;;;;;;;;;;;;;;;23.91;42.85;95955.44;10402703;28;1978;-64
2023/07/08 17:51:57;;;;;;;;;;;;;;;23.91;42.74;95955.44;10402070;28;1891;-64
2023/07/08 17:57:00;;;;;;;;;;;;;;;23.91;42.78;95947.50;10402573;28;1999;-63
2023/07/08 18:02:00;;;;;;;;;;;;;;;23.92;42.76;95946.44;10382277;28;1902;-65
2023/07/08 18:07:00;;;;;;;;;;;;;;;23.92;42.81;95948.31;10402911;28;2061;-64
2023/07/08 18:12:00;;;;;;;;;;;;;;;23.93;42.97;95944.56;10401013;28;2073;-64
2023/07/08 18:17:01;;;;;;;;;;;;;;;23.93;42.63;95950.66;10400323;28;1900;-64
2023/07/08 18:22:02;;;;;;;;;;;;;;;23.93;42.79;95947.22;10401064;28;1977;-65
2023/07/08 18:27:02;;;;;;;;;;;;;;;23.93;42.90;95958.59;10401423;28;1988;-65
2023/07/08 18:32:04;;;;;;;;;;;;;;;23.93;42.91;95958.59;10400447;28;1908;-64
2023/07/08 18:37:04;;;;;;;;;;;;;;;23.93;42.65;95966.53;10400588;28;2053;-65
2023/07/08 18:42:05;;;;;;;;;;;;;;;23.93;42.74;95966.53;10398879;28;4596;-64
2023/07/08 18:47:08;;;;;;;;;;;;;;;23.94;42.93;95970.78;10384784;28;1913;-64
2023/07/08 18:52:08;;;;;;;;;;;;;;;23.94;42.61;95973.41;10382946;28;2015;-65
2023/07/08 18:57:09;;;;;;;;;;;;;;;23.94;42.77;95981.38;10384431;28;2077;-64
2023/07/08 19:02:29;;;;;;;;;;;;;;;23.95;42.51;95976.84;10409795;28;2030;-64
2023/07/08 19:07:30;;;;;;;;;;;;;;;23.95;42.82;95985.56;10382847;28;2325;-64
2023/07/08 19:12:30;;;;;;;;;;;;;;;23.95;42.57;95993.50;10396560;28;1903;-65
2023/07/08 19:17:30;;;;;;;;;;;;;;;23.95;42.79;95992.72;10397597;28;1959;-64
2023/07/08 19:22:30;;;;;;;;;;;;;;;23.95;42.53;95996.16;10400488;28;1913;-65
2023/07/08 19:27:31;;;;;;;;;;;;;;;23.96;42.81;95999.59;10399037;28;1918;-65
2023/07/08 19:32:31;;;;;;;;;;;;;;;23.95;42.72;96006.75;10399838;28;2069;-64
2023/07/08 19:37:31;;;;;;;;;;;;;;;23.96;42.61;96021.56;10380113;28;1967;-64
2023/07/08 19:42:31;;;;;;;;;;;;;;;23.97;42.71;96014.41;10400921;28;4438;-64
2023/07/08 19:47:32;;;;;;;;;;;;;;;23.97;42.79;96017.84;10396401;28;1971;-64
2023/07/08 19:52:32;;;;;;;;;;;;;;;23.97;42.67;96022.34;10378594;28;2008;-64
2023/07/08 19:57:42;;;;;;;;;;;;;;;23.97;42.66;96028.44;10397003;28;1906;-66
2023/07/08 20:02:42;;;;;;;;;;;;;;;23.98;42.71;96027.38;10395139;28;1891;-64
2023/07/08 20:07:43;;;;;;;;;;;;;;;23.98;42.70;96030.03;10395761;28;2006;-64
2023/07/08 20:12:43;;;;;;;;;;;;;;;23.97;42.67;96023.13;10396810;28;1944;-64
2023/07/08 20:17:44;;;;;;;;;;;;;;;23.99;42.69;96036.06;10405856;28;2024;-64
2023/07/08 20:22:44;;;;;;;;;;;;;;;23.99;42.72;96036.88;10396181;28;1944;-65
2023/07/08 20:27:47;;;;;;;;;;;;;;;23.98;42.88;96035.31;10391607;28;1979;-64
2023/07/08 20:32:48;;;;;;;;;;;;;;;24.00;42.73;96043.75;10391848;28;1891;-64
2023/07/08 20:37:48;;;;;;;;;;;;;;;24.01;42.16;96052.47;10376080;28;2016;-64
2023/07/08 20:42:53;;;;;;;;;;;;;;;24.02;42.00;96044.25;10394682;28;4482;-64
2023/07/08 20:47:53;;;;;;;;;;;;;;;24.04;41.98;96047.44;10396525;28;2170;-64
2023/07/08 20:52:54;;;;;;;;;;;;;;;24.04;41.70;96044.78;10394968;28;2258;-60
2023/07/08 20:57:54;;;;;;;;;;;;;;;24.06;41.16;96045.28;10377589;28;1938;-62
2023/07/08 21:02:54;;;;;;;;;;;;;;;24.07;41.22;96052.13;10396596;28;2305;-63
2023/07/08 21:07:56;;;;;;;;;;;;;;;24.06;41.57;96058.53;10391168;28;1945;-63
2023/07/08 21:12:56;;;;;;;;;;;;;;;24.07;41.45;96065.38;10396232;28;2005;-65
2023/07/08 21:17:56;;;;;;;;;;;;;;;24.07;41.17;96065.38;10397093;28;2182;-64
2023/07/08 21:22:56;;;;;;;;;;;;;;;24.09;41.12;96065.13;10385510;28;2131;-63
2023/07/08 21:27:57;;;;;;;;;;;;;;;24.07;41.16;96068.03;10397308;28;2023;-64
2023/07/08 21:32:57;;;;;;;;;;;;;;;24.07;41.20;96060.09;10396273;28;2129;-63
2023/07/08 21:37:59;;;;;;;;;;;;;;;24.04;41.02;96060.69;10399946;28;1941;-63
2023/07/08 21:42:59;;;;;;;;;;;;;;;24.04;41.10;96063.31;10384716;28;4731;-63
2023/07/08 21:47:59;;;;;;;;;;;;;;;24.02;41.47;96065.44;10403879;28;1982;-63
2023/07/08 21:53:00;;;;;;;;;;;;;;;24.01;41.54;96066.50;10403561;28;1898;-63
2023/07/08 21:58:01;;;;;;;;;;;;;;;24.01;41.79;96063.84;10400441;28;2217;-63
2023/07/08 22:03:01;;;;;;;;;;;;;;;24.00;41.96;96059.66;10395992;28;1898;-62
2023/07/08 22:08:01;;;;;;;;;;;;;;;23.99;41.91;96058.06;10398042;28;1921;-62
2023/07/08 22:13:01;;;;;;;;;;;;;;;23.97;42.23;96056.75;10401726;28;1878;-62
2023/07/08 22:18:02;;;;;;;;;;;;;;;23.97;42.34;96054.91;10399494;28;1913;-62
2023/07/08 22:23:02;;;;;;;;;;;;;;;23.96;42.80;96063.94;10400933;28;2019;-62
2023/07/08 22:28:02;;;;;;;;;;;;;;;23.95;43.01;96072.16;10404184;28;1950;-61
2023/07/08 22:33:02;;;;;;;;;;;;;;;23.95;43.15;96072.94;10382828;28;1983;-62
2023/07/08 22:38:03;;;;;;;;;;;;;;;23.96;42.97;96081.69;10399228;28;2102;-62
2023/07/08 22:43:03;;;;;;;;;;;;;;;23.94;43.45;96078.53;10399591;28;4561;-59
2023/07/08 22:48:04;;;;;;;;;;;;;;;23.92;43.67;96073.53;10401196;28;1957;-62
2023/07/08 22:53:04;;;;;;;;;;;;;;;23.90;43.76;96080.97;10398486;28;2433;-63
2023/07/08 22:58:14;;;;;;;;;;;;;;;23.88;44.10;96088.41;10398844;28;1960;-62
2023/07/08 23:03:14;;;;;;;;;;;;;;;23.86;44.20;96085.28;10386059;28;1973;-64
2023/07/08 23:08:15;;;;;;;;;;;;;;;23.84;44.37;96095.38;10399957;28;1973;-63
2023/07/08 23:13:16;;;;;;;;;;;;;;;23.82;44.19;96100.13;10399564;28;1933;-62
2023/07/08 23:18:17;;;;;;;;;;;;;;;23.81;44.60;96105.72;10401929;28;1886;-62
2023/07/08 23:23:17;;;;;;;;;;;;;;;23.77;44.77;96097.56;10398593;28;1874;-62
2023/07/08 23:28:17;;;;;;;;;;;;;;;23.75;45.08;96109.50;10397834;28;2033;-64
2023/07/08 23:33:18;;;;;;;;;;;;;;;23.72;45.25;96110.84;10399798;28;1946;-62
2023/07/08 23:38:18;;;;;;;;;;;;;;;23.72;45.25;96100.25;10401849;28;1983;-62
2023/07/08 23:43:19;;;;;;;;;;;;;;;23.71;45.45;96104.00;10395067;28;4482;-63
2023/07/08 23:48:19;;;;;;;;;;;;;;;23.72;45.14;96110.84;10400824;28;2289;-62
2023/07/08 23:53:19;;;;;;;;;;;;;;;23.69;45.39;96119.38;10400772;28;1963;-62
2023/07/08 23:58:23;;;;;;;;;;;;;;;23.67;45.45;96108.28;10396085;28;1908;-63
